Canaan Lake, New York
Current Conditions -  °F | °C
As of 2:56 PM on Wednesday 28 Jan 2015 (Local Time) from KISP Reporting Station
Few Clouds Few Clouds  
Wind Chill: 17°   Ceiling: Unl
Heat Index: 28°   Visibility: 10mi
Dew Point: 11°   Wind: 15mph
Humidity: 49%   Direction: 320°NW
Pressure: 30.03"   Gusts: 24mph
Location:  40.7718°N, 72.9949°W
Report Text: KISP 281956Z 32013G21KT 10SM FEW120 M02/M12 A3003 RMK AO2 SLP171 T10221117 $
Loading
Personal Weather Stations






























Interactive Weather Map New forecast layout! Learn more

10-Day Weather Forecast

Advertisements
Track Severe Weather on mobile